Charfield, United Kingdom
Current Conditions -  °F | °C
As of 8:50 AM on Wednesday 28 Jan 2015 (Local Time) from EGBJ Reporting Station
Drizzle Drizzle  
Wind Chill: 50°   Ceiling: 1500
Heat Index: 50°   Visibility: 6mi
Dew Point: 48°   Wind: 14mph
Humidity: 94%   Direction: 210°SSW
Pressure: 29.56"   Gusts: NA
Location:  51.63°N, 2.41°W
Report Text: EGBJ 280850Z 21012KT 9999 -DZ SCT009 BKN015 10/09 Q1001
Loading
Personal Weather Stations






























Interactive Weather Map New forecast layout! Learn more

10-Day Weather Forecast

Advertisements
Track Severe Weather on mobile